createdAt,value
2022-11-05T00:01:23.090Z,363.20
2022-11-05T00:04:10.682Z,355.58
2022-11-05T00:06:59.192Z,359.33
2022-11-05T00:09:33.372Z,357.35
2022-11-05T00:12:32.970Z,373.70
2022-11-05T00:15:20.580Z,365.58
2022-11-05T00:17:49.862Z,348.27
2022-11-05T00:20:19.693Z,369.23
2022-11-05T00:23:06.895Z,380.95
2022-11-05T00:25:36.153Z,371.83
2022-11-05T00:28:05.929Z,368.52
2022-11-05T00:30:35.464Z,369.13
2022-11-05T00:33:04.605Z,381.20
2022-11-05T00:35:33.769Z,367.42
2022-11-05T00:38:03.078Z,390.88
2022-11-05T00:40:32.123Z,362.02
2022-11-05T00:43:19.693Z,382.08
2022-11-05T00:45:48.804Z,372.02
2022-11-05T00:48:36.311Z,371.35
2022-11-05T00:51:05.631Z,370.88
2022-11-05T00:53:35.181Z,363.38
2022-11-05T00:56:04.497Z,363.67
2022-11-05T00:58:33.717Z,361.73
2022-11-05T01:01:06.770Z,385.52
2022-11-05T01:03:41.116Z,372.83
2022-11-05T01:06:16.657Z,383.55
2022-11-05T01:08:51.190Z,374.83
2022-11-05T01:11:35.584Z,369.05
2022-11-05T01:14:12.061Z,372.92
2022-11-05T01:16:43.793Z,383.92
2022-11-05T01:19:15.295Z,407.50
2022-11-05T01:21:46.326Z,427.20
2022-11-05T01:24:16.559Z,420.17
2022-11-05T01:26:47.035Z,429.30
2022-11-05T01:29:17.783Z,424.85
2022-11-05T01:31:48.009Z,423.05
2022-11-05T01:34:18.678Z,426.60
2022-11-05T01:36:48.851Z,437.40
2022-11-05T01:39:19.451Z,436.95
2022-11-05T01:41:49.581Z,441.15
2022-11-05T01:44:56.253Z,436.40
2022-11-05T01:47:28.948Z,417.38
2022-11-05T01:52:36.603Z,385.33
2022-11-05T01:55:07.375Z,404.10
2022-11-05T01:57:37.476Z,405.02
2022-11-05T02:00:09.539Z,391.92
2022-11-05T02:02:42.720Z,392.02
2022-11-05T02:05:14.924Z,395.52
2022-11-05T02:07:49.701Z,374.50
2022-11-05T02:10:20.658Z,374.40
2022-11-05T02:12:51.260Z,363.92
2022-11-05T02:15:59.751Z,361.42
2022-11-05T02:18:32.560Z,353.27
2022-11-05T02:21:41.223Z,372.27
2022-11-05T02:24:11.267Z,358.30
2022-11-05T02:26:58.987Z,362.63
2022-11-05T02:30:09.342Z,355.35
2022-11-05T02:32:50.398Z,349.25
2022-11-05T02:35:53.340Z,340.67
2022-11-05T02:38:58.071Z,359.13
2022-11-05T02:41:45.909Z,349.15
2022-11-05T02:44:36.262Z,385.50
2022-11-05T02:47:43.668Z,324.60
2022-11-05T02:50:35.883Z,323.00
2022-11-05T02:53:11.916Z,317.40
2022-11-05T02:56:04.363Z,326.65
2022-11-05T02:58:37.078Z,303.00
2022-11-05T03:01:08.819Z,306.80
2022-11-05T03:03:50.409Z,303.30
2022-11-05T03:07:03.452Z,301.55
2022-11-05T03:09:59.645Z,286.65
2022-11-05T03:12:32.708Z,290.95
2022-11-05T03:15:28.715Z,310.38
2022-11-05T03:18:27.824Z,284.08
2022-11-05T03:21:24.080Z,301.55
2022-11-05T03:24:05.440Z,293.80
2022-11-05T03:26:54.562Z,288.60
2022-11-05T03:29:38.663Z,293.98
2022-11-05T03:32:09.939Z,276.65
2022-11-05T03:34:48.356Z,297.67
2022-11-05T03:37:24.522Z,271.65
2022-11-05T03:39:59.935Z,277.17
2022-11-05T03:42:35.116Z,281.52
2022-11-05T03:45:12.695Z,273.13
2022-11-05T03:47:46.172Z,278.95
2022-11-05T03:50:25.530Z,300.67
2022-11-05T03:53:01.319Z,294.58
2022-11-05T03:55:49.887Z,287.63
2022-11-05T03:58:24.245Z,290.30
2022-11-05T04:00:54.381Z,277.23
2022-11-05T04:03:25.050Z,279.05
2022-11-05T04:06:16.223Z,278.90
2022-11-05T04:09:04.879Z,274.90
2022-11-05T04:11:52.948Z,277.75
2022-11-05T04:14:23.803Z,269.45
2022-11-05T04:17:10.812Z,266.63
2022-11-05T04:20:02.094Z,256.38
2022-11-05T04:22:55.681Z,279.98
2022-11-05T04:25:26.201Z,256.90
2022-11-05T04:28:04.025Z,250.02
2022-11-05T04:30:34.741Z,257.95
2022-11-05T04:33:08.810Z,250.88
2022-11-05T04:35:44.607Z,256.30
2022-11-05T04:38:19.767Z,262.23
2022-11-05T04:40:49.522Z,255.02
2022-11-05T04:43:21.158Z,256.75
2022-11-05T04:45:50.757Z,261.77
2022-11-05T04:48:19.675Z,252.55
2022-11-05T04:50:49.344Z,264.70
2022-11-05T04:53:18.952Z,258.52
2022-11-05T04:55:48.188Z,264.48
2022-11-05T04:58:17.319Z,252.55
2022-11-05T05:00:46.493Z,256.98
2022-11-05T05:03:15.603Z,245.27
2022-11-05T05:05:44.759Z,255.18
2022-11-05T05:08:13.826Z,240.82
2022-11-05T05:10:42.883Z,239.15
2022-11-05T05:13:13.534Z,239.13
2022-11-05T05:15:42.988Z,237.18
2022-11-05T05:18:13.340Z,241.48
2022-11-05T05:21:01.188Z,230.60
2022-11-05T05:23:30.875Z,238.45
2022-11-05T05:26:03.031Z,238.40
2022-11-05T05:28:32.205Z,228.68
2022-11-05T05:31:02.576Z,226.85
2022-11-05T05:33:32.912Z,224.48
2022-11-05T05:36:08.424Z,230.38
2022-11-05T05:38:40.195Z,214.68
2022-11-05T05:41:10.050Z,208.95
2022-11-05T05:43:39.349Z,209.65
2022-11-05T05:46:15.318Z,213.07
2022-11-05T05:48:49.746Z,230.90
2022-11-05T05:51:22.228Z,228.07
2022-11-05T05:56:21.763Z,244.23
2022-11-05T05:58:50.924Z,229.13
2022-11-05T06:01:20.551Z,225.05
2022-11-05T06:03:50.576Z,268.42
2022-11-05T06:06:23.676Z,235.68
2022-11-05T06:08:57.376Z,213.02
2022-11-05T06:11:26.788Z,231.45
2022-11-05T06:13:55.828Z,217.13
2022-11-05T06:16:25.346Z,212.45
2022-11-05T06:18:54.386Z,201.60
2022-11-05T06:21:23.687Z,202.02
2022-11-05T06:23:52.701Z,201.20
2022-11-05T06:26:22.097Z,223.50
2022-11-05T06:28:51.351Z,210.98
2022-11-05T06:31:20.684Z,196.43
2022-11-05T06:33:50.475Z,218.10
2022-11-05T06:36:22.130Z,226.88
2022-11-05T06:38:52.983Z,227.13
2022-11-05T06:41:22.681Z,216.20
2022-11-05T06:43:52.561Z,204.60
2022-11-05T06:46:22.122Z,209.50
2022-11-05T06:48:52.429Z,206.13
2022-11-05T06:51:22.543Z,209.15
2022-11-05T06:53:52.519Z,207.57
2022-11-05T06:56:22.535Z,227.95
2022-11-05T06:58:57.996Z,215.45
2022-11-05T07:01:28.218Z,225.60
2022-11-05T07:03:58.503Z,200.45
2022-11-05T07:06:33.003Z,224.50
2022-11-05T07:09:06.339Z,223.88
2022-11-05T07:11:35.502Z,229.80
2022-11-05T07:14:04.312Z,229.02
2022-11-05T07:16:33.530Z,220.70
2022-11-05T07:19:03.123Z,220.20
2022-11-05T07:21:32.227Z,226.43
2022-11-05T07:24:01.566Z,220.70
2022-11-05T07:26:34.571Z,257.48
2022-11-05T07:29:04.081Z,238.82
2022-11-05T07:31:33.015Z,240.52
2022-11-05T07:34:02.301Z,235.52
2022-11-05T07:36:31.370Z,230.13
2022-11-05T07:39:00.741Z,231.38
2022-11-05T07:41:30.928Z,232.32
2022-11-05T07:44:00.105Z,207.23
2022-11-05T07:46:29.213Z,232.85
2022-11-05T07:48:58.752Z,217.07
2022-11-05T07:51:28.748Z,232.02
2022-11-05T07:53:58.561Z,224.70
2022-11-05T07:56:27.620Z,237.57
2022-11-05T07:58:56.606Z,227.25
2022-11-05T08:01:26.103Z,232.90
2022-11-05T08:03:55.956Z,228.50
2022-11-05T08:06:24.965Z,237.73
2022-11-05T08:08:53.993Z,242.93
2022-11-05T08:11:23.539Z,229.23
2022-11-05T08:13:53.041Z,239.75
2022-11-05T08:16:22.124Z,218.75
2022-11-05T08:18:51.274Z,235.23
2022-11-05T08:21:20.381Z,224.52
2022-11-05T08:23:49.947Z,242.45
2022-11-05T08:26:20.595Z,245.18
2022-11-05T08:28:49.700Z,254.52
2022-11-05T08:31:19.210Z,242.35
2022-11-05T08:33:48.413Z,225.90
2022-11-05T08:36:17.771Z,240.93
2022-11-05T08:38:46.817Z,235.27
2022-11-05T08:41:15.916Z,247.07
2022-11-05T08:43:46.189Z,243.07
2022-11-05T08:46:15.488Z,243.88
2022-11-05T08:48:44.351Z,250.85
2022-11-05T08:51:13.396Z,261.75
2022-11-05T08:53:42.939Z,246.00
2022-11-05T08:56:12.115Z,245.52
2022-11-05T08:58:41.181Z,262.45
2022-11-05T09:01:10.345Z,260.92
2022-11-05T09:03:39.794Z,256.50
2022-11-05T09:06:09.787Z,254.77
2022-11-05T09:08:38.884Z,241.52
2022-11-05T09:11:07.969Z,252.82
2022-11-05T09:13:37.154Z,247.43
2022-11-05T09:16:06.698Z,242.50
2022-11-05T09:18:35.910Z,232.70
2022-11-05T09:21:05.196Z,245.80
2022-11-05T09:23:34.274Z,233.20
2022-11-05T09:26:03.283Z,230.85
2022-11-05T09:28:33.534Z,260.20
2022-11-05T09:31:13.134Z,251.95
2022-11-05T09:33:44.333Z,228.23
2022-11-05T09:36:13.387Z,246.77
2022-11-05T09:38:42.749Z,241.65
2022-11-05T09:41:35.655Z,236.93
2022-11-05T09:44:23.842Z,239.80
2022-11-05T09:46:57.925Z,229.52
2022-11-05T09:49:36.582Z,246.93
2022-11-05T09:52:07.354Z,243.68
2022-11-05T09:54:36.531Z,230.38
2022-11-05T09:57:13.366Z,247.45
2022-11-05T09:59:48.887Z,240.57
2022-11-05T10:02:25.896Z,256.15
2022-11-05T10:05:08.094Z,246.98
2022-11-05T10:07:52.607Z,260.35
2022-11-05T10:10:31.863Z,272.80
2022-11-05T10:13:16.961Z,264.88
2022-11-05T10:15:59.465Z,273.73
2022-11-05T10:18:35.004Z,281.40
2022-11-05T10:21:05.080Z,274.77
2022-11-05T10:23:35.086Z,291.23
2022-11-05T10:26:12.502Z,287.25
2022-11-05T10:28:42.054Z,294.48
2022-11-05T10:31:19.940Z,284.25
2022-11-05T10:34:03.228Z,302.23
2022-11-05T10:36:36.881Z,460.05
2022-11-05T10:39:16.034Z,325.58
2022-11-05T10:41:54.230Z,303.17
2022-11-05T10:45:07.697Z,287.67
2022-11-05T10:48:04.146Z,271.23
2022-11-05T10:50:33.651Z,277.63
2022-11-05T10:53:13.153Z,259.80
2022-11-05T10:55:47.778Z,267.33
2022-11-05T10:58:20.065Z,260.08
2022-11-05T11:03:42.216Z,267.15
2022-11-05T11:06:18.386Z,270.95
2022-11-05T11:08:49.417Z,278.90
2022-11-05T11:11:39.321Z,303.52
2022-11-05T11:14:14.765Z,301.13
2022-11-05T11:16:49.295Z,312.40
2022-11-05T11:19:36.322Z,312.05
2022-11-05T11:22:05.434Z,302.70
2022-11-05T11:24:45.098Z,327.10
2022-11-05T11:27:26.195Z,306.50
2022-11-05T11:30:03.826Z,304.20
2022-11-05T11:32:42.003Z,324.77
2022-11-05T11:35:25.825Z,308.35
2022-11-05T11:37:58.325Z,332.73
2022-11-05T11:43:24.484Z,333.40
2022-11-05T11:45:59.387Z,323.95
2022-11-05T11:48:33.339Z,331.40
2022-11-05T11:51:33.109Z,335.15
2022-11-05T11:54:04.621Z,326.80
2022-11-05T11:56:45.974Z,343.77
2022-11-05T11:59:46.809Z,362.95
2022-11-05T12:02:27.426Z,344.05
2022-11-05T12:05:23.746Z,349.60
2022-11-05T12:08:07.261Z,345.10
2022-11-05T12:10:45.125Z,346.65
2022-11-05T12:13:17.137Z,350.38
2022-11-05T12:15:54.317Z,341.02
2022-11-05T12:18:44.551Z,332.77
2022-11-05T12:21:52.494Z,357.17
2022-11-05T12:24:36.691Z,344.98
2022-11-05T12:27:20.799Z,367.98
2022-11-05T12:30:20.832Z,347.17
2022-11-05T12:32:59.183Z,369.92
2022-11-05T12:35:48.066Z,365.63
2022-11-05T12:38:33.845Z,360.20
2022-11-05T12:41:11.525Z,356.50
2022-11-05T12:43:55.354Z,370.02
2022-11-05T12:46:47.707Z,379.08
2022-11-05T12:49:31.805Z,384.75
2022-11-05T12:52:26.416Z,406.25
2022-11-05T12:55:04.374Z,403.58
2022-11-05T12:57:38.057Z,382.25
2022-11-05T13:00:17.977Z,396.75
2022-11-05T13:03:09.243Z,409.77
2022-11-05T13:05:43.234Z,397.95
2022-11-05T13:08:47.821Z,400.45
2022-11-05T13:11:30.441Z,402.02
2022-11-05T13:16:38.968Z,395.20
2022-11-05T13:19:33.194Z,391.20
2022-11-05T13:22:12.520Z,427.90
2022-11-05T13:24:51.982Z,414.98
2022-11-05T13:27:37.111Z,435.33
2022-11-05T13:30:11.755Z,427.92
2022-11-05T13:32:44.692Z,424.67
2022-11-05T13:35:23.176Z,434.60
2022-11-05T13:38:23.095Z,409.02
2022-11-05T13:41:07.252Z,425.95
2022-11-05T13:43:53.567Z,423.13
2022-11-05T13:46:29.297Z,441.40
2022-11-05T13:49:30.221Z,437.85
2022-11-05T13:52:37.161Z,426.33
2022-11-05T13:55:41.625Z,424.08
2022-11-05T13:58:38.013Z,420.48
2022-11-05T14:01:28.969Z,406.73
2022-11-05T14:03:58.915Z,410.50
2022-11-05T14:06:35.581Z,405.23
2022-11-05T14:09:20.678Z,411.40
2022-11-05T14:11:57.184Z,407.38
2022-11-05T14:14:31.669Z,389.05
2022-11-05T14:17:10.206Z,395.55
2022-11-05T14:20:08.555Z,397.17
2022-11-05T14:22:42.890Z,403.30
2022-11-05T14:25:21.523Z,415.45
2022-11-05T14:27:53.569Z,397.98
2022-11-05T14:30:41.500Z,399.05
2022-11-05T14:33:18.871Z,408.45
2022-11-05T14:35:48.177Z,412.85
2022-11-05T14:38:27.441Z,408.45
2022-11-05T14:41:04.400Z,403.25
2022-11-05T14:43:37.246Z,403.55
2022-11-05T14:46:09.862Z,403.42
2022-11-05T14:48:39.413Z,390.35
2022-11-05T14:51:27.381Z,387.35
2022-11-05T14:54:23.840Z,403.30
2022-11-05T14:56:56.546Z,392.25
2022-11-05T14:59:26.569Z,377.10
2022-11-05T15:01:58.861Z,387.50
2022-11-05T15:07:06.038Z,364.75
2022-11-05T15:09:59.498Z,375.55
2022-11-05T15:12:55.507Z,369.65
2022-11-05T15:15:42.904Z,389.17
2022-11-05T15:18:30.511Z,365.30
2022-11-05T15:21:03.717Z,368.73
2022-11-05T15:23:44.096Z,369.02
2022-11-05T15:26:20.523Z,373.50
2022-11-05T15:28:52.718Z,367.95
2022-11-05T15:31:37.975Z,367.65
2022-11-05T15:34:25.030Z,379.02
2022-11-05T15:37:22.901Z,361.08
2022-11-05T15:39:54.630Z,352.83
2022-11-05T15:42:28.807Z,359.15
2022-11-05T15:45:00.926Z,355.90
2022-11-05T15:47:35.336Z,366.33
2022-11-05T15:50:22.929Z,356.48
2022-11-05T15:53:04.840Z,368.17
2022-11-05T15:55:55.315Z,377.67
2022-11-05T15:58:24.480Z,362.15
2022-11-05T16:00:53.548Z,362.88
2022-11-05T16:03:36.132Z,366.65
2022-11-05T16:06:10.485Z,359.63
2022-11-05T16:08:39.746Z,373.02
2022-11-05T16:11:08.725Z,389.60
2022-11-05T16:13:45.803Z,367.17
2022-11-05T16:16:18.023Z,400.55
2022-11-05T16:18:48.431Z,398.60
2022-11-05T16:21:20.344Z,394.58
2022-11-05T16:23:49.939Z,398.70
2022-11-05T16:29:40.333Z,380.85
2022-11-05T16:32:22.151Z,386.80
2022-11-05T16:34:58.508Z,381.45
2022-11-05T16:37:29.428Z,395.90
2022-11-05T16:39:58.720Z,395.77
2022-11-05T16:42:39.751Z,410.52
2022-11-05T16:45:13.283Z,407.92
2022-11-05T16:47:43.428Z,397.42
2022-11-05T16:50:20.772Z,417.77
2022-11-05T16:52:50.872Z,396.27
2022-11-05T16:55:20.726Z,399.85
2022-11-05T16:57:54.660Z,401.05
2022-11-05T17:00:24.893Z,399.55
2022-11-05T17:02:54.674Z,396.70
2022-11-05T17:05:33.239Z,407.70
2022-11-05T17:08:04.597Z,422.80
2022-11-05T17:10:34.592Z,406.30
2022-11-05T17:13:03.946Z,411.58
2022-11-05T17:15:38.487Z,419.38
2022-11-05T17:18:07.993Z,418.85
2022-11-05T17:20:43.493Z,425.10
2022-11-05T17:23:17.722Z,422.17
2022-11-05T17:25:50.337Z,419.67
2022-11-05T17:28:20.899Z,420.85
2022-11-05T17:30:52.760Z,413.17
2022-11-05T17:33:24.007Z,403.45
2022-11-05T17:35:55.198Z,428.10
2022-11-05T17:38:26.096Z,433.83
2022-11-05T17:40:55.268Z,420.65
2022-11-05T17:43:25.449Z,432.35
2022-11-05T17:45:59.995Z,447.92
2022-11-05T17:48:32.413Z,434.45
2022-11-05T17:51:02.228Z,434.35
2022-11-05T17:53:32.189Z,449.65
2022-11-05T17:56:01.533Z,408.70
2022-11-05T17:58:30.412Z,418.33
2022-11-05T18:00:59.991Z,434.00
2022-11-05T18:03:29.553Z,432.40
2022-11-05T18:06:06.305Z,429.73
2022-11-05T18:08:35.620Z,430.65
2022-11-05T18:11:05.166Z,437.98
2022-11-05T18:13:34.177Z,434.30
2022-11-05T18:16:03.867Z,432.52
2022-11-05T18:18:33.066Z,431.00
2022-11-05T18:21:02.512Z,448.48
2022-11-05T18:23:31.649Z,449.30
2022-11-05T18:26:02.228Z,404.67
2022-11-05T18:28:33.312Z,493.17
2022-11-05T18:31:02.789Z,709.45
2022-11-05T18:33:32.435Z,365.92
2022-11-05T18:36:01.399Z,153.43
2022-11-05T18:38:30.735Z,176.90
2022-11-05T18:40:59.989Z,168.80
2022-11-05T18:43:28.920Z,184.18
2022-11-05T18:45:58.368Z,302.45
2022-11-05T18:48:27.466Z,134.70
2022-11-05T18:51:01.530Z,121.43
2022-11-05T18:53:31.138Z,121.30
2022-11-05T18:56:00.410Z,59.45
2022-11-05T18:58:29.418Z,47.08
2022-11-05T19:01:02.526Z,27.05
2022-11-05T19:03:35.257Z,198.82
2022-11-05T19:06:06.382Z,44.65
2022-11-05T19:08:35.877Z,40.15
2022-11-05T19:11:25.750Z,41.45
2022-11-05T19:13:55.300Z,27.05
2022-11-05T19:16:29.093Z,39.53
2022-11-05T19:19:05.553Z,28.63
2022-11-05T19:21:34.992Z,24.88
2022-11-05T19:24:07.668Z,33.30
2022-11-05T19:26:38.923Z,23.70
2022-11-05T19:29:09.259Z,36.15
2022-11-05T19:31:38.640Z,40.50
2022-11-05T19:34:07.564Z,24.58
2022-11-05T19:36:36.693Z,39.72
2022-11-05T19:39:10.152Z,41.15
2022-11-05T19:41:39.248Z,33.45
2022-11-05T19:44:08.230Z,28.77
2022-11-05T19:46:39.828Z,39.67
2022-11-05T19:49:08.934Z,35.25
2022-11-05T19:51:38.894Z,35.22
2022-11-05T19:54:08.672Z,30.98
2022-11-05T19:56:39.827Z,29.83
2022-11-05T19:59:09.035Z,31.80
2022-11-05T20:01:38.075Z,43.67
2022-11-05T20:04:07.501Z,28.83
2022-11-05T20:06:42.100Z,27.10
2022-11-05T20:09:23.300Z,29.38
2022-11-05T20:11:57.534Z,33.85
2022-11-05T20:14:27.358Z,31.23
2022-11-05T20:16:57.230Z,32.35
2022-11-05T20:19:26.505Z,32.75
2022-11-05T20:21:55.755Z,36.08
2022-11-05T20:24:25.701Z,33.90
2022-11-05T20:26:56.647Z,31.10
2022-11-05T20:29:33.906Z,29.60
2022-11-05T20:32:05.545Z,24.90
2022-11-05T20:34:36.521Z,25.33
2022-11-05T20:37:05.916Z,31.85
2022-11-05T20:39:34.918Z,20.45
2022-11-05T20:42:04.018Z,20.67
2022-11-05T20:44:32.990Z,125.93
2022-11-05T20:47:02.283Z,30.83
2022-11-05T20:49:31.202Z,34.28
2022-11-05T20:52:00.418Z,29.02
2022-11-05T20:54:29.514Z,23.98
2022-11-05T20:56:58.636Z,34.25
2022-11-05T20:59:28.199Z,41.38
2022-11-05T21:01:57.514Z,36.90
2022-11-05T21:04:26.747Z,96.93
2022-11-05T21:06:55.735Z,29.42
2022-11-05T21:09:24.999Z,32.33
2022-11-05T21:12:12.666Z,44.08
2022-11-05T21:14:44.415Z,27.67
2022-11-05T21:17:14.029Z,33.97
2022-11-05T21:19:43.702Z,24.23
2022-11-05T21:22:17.966Z,29.73
2022-11-05T21:24:47.888Z,24.05
2022-11-05T21:27:17.048Z,35.38
2022-11-05T21:29:46.488Z,28.05
2022-11-05T21:32:16.242Z,33.13
2022-11-05T21:34:45.127Z,36.70
2022-11-05T21:37:14.354Z,30.23
2022-11-05T21:39:43.629Z,36.05
2022-11-05T21:42:13.211Z,27.27
2022-11-05T21:44:42.712Z,30.00
2022-11-05T21:47:12.471Z,29.73
2022-11-05T21:49:41.707Z,30.30
2022-11-05T21:52:31.568Z,36.58
2022-11-05T21:55:18.987Z,37.80
2022-11-05T21:58:06.349Z,36.42
2022-11-05T22:00:35.867Z,39.95
2022-11-05T22:03:07.054Z,35.85
2022-11-05T22:05:36.304Z,38.10
2022-11-05T22:08:05.850Z,37.22
2022-11-05T22:10:36.579Z,40.63
2022-11-05T22:13:05.618Z,37.90
2022-11-05T22:15:35.757Z,34.67
2022-11-05T22:18:05.126Z,35.10
2022-11-05T22:20:34.124Z,40.05
2022-11-05T22:23:06.326Z,41.88
2022-11-05T22:25:40.248Z,39.85
2022-11-05T22:28:09.594Z,43.15
2022-11-05T22:30:38.822Z,39.25
2022-11-05T22:33:08.282Z,41.72
2022-11-05T22:35:40.363Z,38.25
2022-11-05T22:38:10.210Z,36.72
2022-11-05T22:40:39.770Z,39.10
2022-11-05T22:43:09.305Z,32.22
2022-11-05T22:45:38.915Z,29.95
2022-11-05T22:48:08.145Z,30.40
2022-11-05T22:50:37.228Z,27.77
2022-11-05T22:53:06.329Z,23.15
2022-11-05T22:55:40.044Z,24.50
2022-11-05T22:58:09.104Z,23.58
2022-11-05T23:00:40.528Z,30.27
2022-11-05T23:03:10.153Z,25.67
2022-11-05T23:05:39.353Z,28.85
2022-11-05T23:08:26.876Z,25.60
2022-11-05T23:11:14.326Z,25.70
2022-11-05T23:13:43.483Z,25.63
2022-11-05T23:16:30.609Z,21.40
2022-11-05T23:19:18.546Z,20.58
2022-11-05T23:22:06.159Z,24.77
2022-11-05T23:24:35.375Z,25.35
2022-11-05T23:27:04.428Z,27.23
2022-11-05T23:29:33.590Z,21.65
2022-11-05T23:32:21.332Z,23.70
2022-11-05T23:34:51.152Z,26.05
2022-11-05T23:37:40.037Z,23.65
2022-11-05T23:40:12.333Z,23.58
2022-11-05T23:43:00.745Z,24.95
2022-11-05T23:45:48.969Z,24.02
2022-11-05T23:48:24.379Z,25.38
2022-11-05T23:51:04.239Z,27.65
2022-11-05T23:53:36.822Z,27.08
2022-11-05T23:56:13.513Z,26.20
2022-11-05T23:58:43.958Z,25.17
